Time;durP1;ratioP1;P1;durP2;ratioP2;P2;SDS_P1;SDS_P2;PMS_P1;PMS_P2;Temp;Humidity;BMP_temperature;BMP_pressure;BME280_temperature;BME280_humidity;BME280_pressure;Samples;Min_cycle;Max_cycle;Signal;HPM_P1;HPM_P2
2022/08/27 00:00:22;;;;;;;4.85;4.45;;;21.70;9.30;;;;;;5055952;28;20104;-86
2022/08/27 00:02:48;;;;;;;4.90;4.50;;;21.70;8.20;;;;;;5055486;28;20028;-86
2022/08/27 00:05:16;;;;;;;5.75;4.03;;;21.70;14.10;;;;;;5055859;28;20029;-86
2022/08/27 00:07:43;;;;;;;4.80;4.32;;;21.60;13.30;;;;;;5055811;28;20091;-87
2022/08/27 00:10:12;;;;;;;4.65;4.25;;;21.50;11.50;;;;;;5055855;28;20083;-86
2022/08/27 00:12:38;;;;;;;4.80;4.40;;;21.50;14.20;;;;;;5055579;28;20044;-86
2022/08/27 00:15:05;;;;;;;5.07;4.30;;;21.50;10.30;;;;;;5053628;28;20037;-86
2022/08/27 00:17:32;;;;;;;4.47;4.10;;;21.60;14.40;;;;;;5055086;28;20032;-87
2022/08/27 00:19:58;;;;;;;5.07;4.53;;;21.50;13.10;;;;;;5055575;28;20031;-86
2022/08/27 00:22:24;;;;;;;4.95;4.45;;;21.40;8.70;;;;;;5055506;28;20025;-86
2022/08/27 00:24:50;;;;;;;5.30;4.80;;;21.40;14.40;;;;;;5055392;28;20029;-87
2022/08/27 00:27:16;;;;;;;4.93;4.53;;;21.20;9.90;;;;;;5055167;28;20087;-86
2022/08/27 00:29:42;;;;;;;4.88;4.38;;;21.20;14.00;;;;;;5055301;28;20029;-87
2022/08/27 00:32:07;;;;;;;5.00;4.50;;;21.20;9.90;;;;;;5055024;28;20100;-87
2022/08/27 00:34:33;;;;;;;5.13;4.60;;;21.30;12.70;;;;;;5055234;28;20482;-86
2022/08/27 00:36:59;;;;;;;5.28;4.88;;;21.10;10.90;;;;;;5055240;28;20456;-87
2022/08/27 00:39:24;;;;;;;5.32;4.82;;;21.10;10.70;;;;;;5055211;28;20383;-86
2022/08/27 00:41:50;;;;;;;4.95;4.45;;;21.10;12.00;;;;;;5055156;28;20060;-87
2022/08/27 00:44:16;;;;;;;6.47;5.30;;;21.20;12.90;;;;;;5055195;28;20109;-86
2022/08/27 00:46:52;;;;;;;5.00;4.50;;;21.10;13.20;;;;;;5054536;28;20511;-87
2022/08/27 00:49:32;;;;;;;6.93;4.70;;;21.20;17.40;;;;;;5055213;28;20025;-86
2022/08/27 00:52:03;;;;;;;5.25;4.75;;;21.10;17.80;;;;;;5055030;28;20025;-86
2022/08/27 00:54:29;;;;;;;6.32;5.07;;;21.00;24.70;;;;;;5054624;28;20094;-86
2022/08/27 00:56:57;;;;;;;5.38;4.88;;;21.00;14.60;;;;;;5054831;28;20104;-86
2022/08/27 00:59:28;;;;;;;5.07;4.68;;;21.00;17.10;;;;;;5054773;28;20033;-86
2022/08/27 01:04:40;;;;;;;5.53;5.03;;;21.00;17.90;;;;;;5054998;28;20055;-87
2022/08/27 01:07:06;;;;;;;5.90;5.30;;;21.00;16.20;;;;;;5054597;28;20531;-87
2022/08/27 01:09:33;;;;;;;6.15;5.07;;;21.00;13.90;;;;;;5054630;28;20107;-87
2022/08/27 01:11:58;;;;;;;5.68;5.05;;;20.90;14.90;;;;;;5054757;28;20021;-86
2022/08/27 01:14:26;;;;;;;6.15;5.13;;;20.90;14.00;;;;;;5052089;28;20057;-86
2022/08/27 01:16:55;;;;;;;5.43;5.03;;;20.80;16.30;;;;;;5054408;28;20033;-86
2022/08/27 01:19:31;;;;;;;6.22;5.32;;;20.80;18.90;;;;;;5054426;28;20489;-86
2022/08/27 01:22:11;;;;;;;5.40;5.00;;;20.90;17.30;;;;;;5054379;28;20035;-86
2022/08/27 01:24:46;;;;;;;5.90;5.38;;;20.90;19.80;;;;;;5054467;28;20021;-86
2022/08/27 01:27:16;;;;;;;6.00;5.47;;;20.80;19.20;;;;;;5054024;28;20118;-87
2022/08/27 01:29:43;;;;;;;6.93;5.93;;;20.90;18.90;;;;;;5053753;28;20033;-86
2022/08/27 01:32:22;;;;;;;6.93;6.32;;;20.90;18.90;;;;;;5054122;28;20025;-87
2022/08/27 01:34:48;;;;;;;6.30;5.80;;;20.90;18.10;;;;;;5054129;28;20032;-86
2022/08/27 01:37:15;;;;;;;6.97;6.10;;;20.70;17.40;;;;;;5054074;28;20025;-86
2022/08/27 01:39:41;;;;;;;7.88;5.70;;;20.80;20.80;;;;;;5054031;28;20371;-86
2022/08/27 01:42:20;;;;;;;6.30;5.70;;;20.80;20.40;;;;;;5054131;28;20354;-86
2022/08/27 01:44:56;;;;;;;6.13;5.53;;;20.80;22.20;;;;;;5053792;28;20495;-86
2022/08/27 01:47:24;;;;;;;6.05;5.55;;;20.70;21.40;;;;;;5054093;28;20025;-86
2022/08/27 01:49:50;;;;;;;6.05;5.55;;;20.70;22.30;;;;;;5036015;28;20082;-86
2022/08/27 01:52:19;;;;;;;6.18;5.68;;;20.80;18.40;;;;;;5053865;28;20029;-86
2022/08/27 01:54:46;;;;;;;6.57;5.95;;;20.80;21.90;;;;;;5053730;28;20025;-86
2022/08/27 01:57:13;;;;;;;6.80;6.15;;;20.70;20.00;;;;;;5053430;28;20028;-86
2022/08/27 01:59:39;;;;;;;7.00;6.40;;;20.70;20.80;;;;;;5053024;28;20497;-87
2022/08/27 02:02:06;;;;;;;6.68;6.07;;;20.70;16.60;;;;;;5053678;28;20060;-87
2022/08/27 02:04:32;;;;;;;7.15;6.55;;;20.70;21.10;;;;;;5053627;28;20084;-86
2022/08/27 02:06:58;;;;;;;6.57;6.07;;;20.70;17.20;;;;;;5053445;28;20021;-86
2022/08/27 02:09:24;;;;;;;6.55;6.03;;;20.70;18.50;;;;;;5053483;28;20033;-86
2022/08/27 02:11:51;;;;;;;6.03;5.43;;;20.60;17.70;;;;;;5053493;28;20343;-86
2022/08/27 02:14:17;;;;;;;6.03;5.57;;;20.60;21.60;;;;;;5050915;28;20045;-86
2022/08/27 02:16:43;;;;;;;5.90;5.47;;;20.60;23.20;;;;;;5053350;28;20082;-86
2022/08/27 02:19:08;;;;;;;6.22;5.47;;;20.60;21.10;;;;;;5053264;28;20108;-86
2022/08/27 02:21:34;;;;;;;6.35;5.75;;;20.70;18.40;;;;;;5053353;28;20029;-86
2022/08/27 02:24:00;;;;;;;6.82;6.22;;;20.60;19.40;;;;;;5053288;28;20511;-86
2022/08/27 02:26:26;;;;;;;6.18;5.68;;;20.50;21.00;;;;;;5053088;28;20503;-86
2022/08/27 02:28:52;;;;;;;6.82;6.22;;;20.50;25.00;;;;;;5052550;28;20056;-86
2022/08/27 02:31:18;;;;;;;6.22;5.72;;;20.50;23.90;;;;;;5052937;28;20029;-86
2022/08/27 02:33:44;;;;;;;6.65;5.90;;;20.50;20.30;;;;;;5053067;28;20074;-86
2022/08/27 02:36:11;;;;;;;6.63;5.97;;;20.30;19.70;;;;;;5052982;28;20029;-86
2022/08/27 02:38:36;;;;;;;6.88;6.22;;;20.20;20.10;;;;;;5052961;28;20108;-87
2022/08/27 02:41:02;;;;;;;6.50;5.65;;;20.20;18.10;;;;;;5053102;28;20071;-86
2022/08/27 02:43:28;;;;;;;6.38;5.78;;;20.30;23.20;;;;;;5052557;28;20389;-86
2022/08/27 02:45:54;;;;;;;6.50;5.90;;;20.30;18.90;;;;;;5052843;28;20021;-86
2022/08/27 02:48:20;;;;;;;6.70;6.10;;;20.30;17.30;;;;;;5052883;28;20029;-87
2022/08/27 02:50:46;;;;;;;7.15;6.38;;;20.30;20.70;;;;;;5052561;28;20025;-87
2022/08/27 02:53:11;;;;;;;6.53;6.03;;;20.20;26.80;;;;;;5052708;28;20028;-86
2022/08/27 02:55:37;;;;;;;6.15;5.65;;;20.20;22.20;;;;;;5052248;28;20036;-86
2022/08/27 02:58:03;;;;;;;6.63;5.95;;;20.30;20.80;;;;;;5052624;28;20038;-87
2022/08/27 03:00:29;;;;;;;6.45;5.85;;;20.30;21.40;;;;;;5052680;28;20042;-86
2022/08/27 03:02:56;;;;;;;6.72;6.13;;;20.20;19.10;;;;;;5052596;28;20032;-87
2022/08/27 03:05:22;;;;;;;8.50;6.00;;;20.30;25.10;;;;;;5052570;28;20027;-86
2022/08/27 03:07:48;;;;;;;6.53;5.95;;;20.30;23.50;;;;;;5052700;28;20021;-87
2022/08/27 03:10:16;;;;;;;5.95;5.43;;;20.30;24.70;;;;;;5052181;28;20017;-86
2022/08/27 03:12:43;;;;;;;9.02;6.13;;;20.30;25.80;;;;;;5052409;28;20021;-86
2022/08/27 03:15:11;;;;;;;7.00;6.40;;;20.30;30.30;;;;;;5050165;28;20120;-86
2022/08/27 03:20:21;;;;;;;6.75;6.15;;;20.30;30.30;;;;;;5052773;28;20040;-86
2022/08/27 03:22:47;;;;;;;6.65;6.05;;;20.30;37.60;;;;;;5052448;28;20025;-87
2022/08/27 03:25:14;;;;;;;7.10;6.40;;;20.30;28.40;;;;;;5052077;28;20036;-87
2022/08/27 03:27:40;;;;;;;6.53;5.50;;;20.30;28.70;;;;;;5052109;28;20047;-86
2022/08/27 03:30:10;;;;;;;6.65;6.00;;;20.40;25.60;;;;;;5052292;28;20112;-86
2022/08/27 03:32:36;;;;;;;7.38;6.72;;;20.30;30.50;;;;;;5052262;28;20096;-86
2022/08/27 03:35:02;;;;;;;7.55;6.28;;;20.30;38.70;;;;;;5052164;28;20037;-87
2022/08/27 03:37:28;;;;;;;7.28;5.70;;;20.20;25.10;;;;;;5034450;28;20021;-86
2022/08/27 03:39:54;;;;;;;6.57;5.95;;;20.30;25.60;;;;;;5051898;28;20029;-86
2022/08/27 03:42:20;;;;;;;6.88;6.22;;;20.40;21.50;;;;;;5052315;28;20061;-87
2022/08/27 03:44:47;;;;;;;6.63;6.03;;;20.30;27.10;;;;;;5052198;28;20036;-86
2022/08/27 03:47:13;;;;;;;6.72;5.75;;;20.40;28.10;;;;;;5052192;28;20036;-87
2022/08/27 03:49:38;;;;;;;6.88;6.22;;;20.40;22.50;;;;;;5052261;28;20025;-86
2022/08/27 03:52:04;;;;;;;6.78;6.18;;;20.50;23.20;;;;;;5052083;28;20504;-87
2022/08/27 03:54:32;;;;;;;7.40;6.13;;;20.50;26.30;;;;;;5051795;28;20239;-87
2022/08/27 03:56:58;;;;;;;7.05;6.45;;;20.60;27.50;;;;;;5052095;28;20014;-86
2022/08/27 03:59:23;;;;;;;6.97;6.38;;;20.50;19.90;;;;;;5052165;28;20107;-87
2022/08/27 04:01:49;;;;;;;9.77;6.72;;;20.40;20.20;;;;;;5052155;28;20029;-86
2022/08/27 04:04:15;;;;;;;7.15;6.40;;;20.40;21.30;;;;;;5052047;28;20033;-87
2022/08/27 04:06:41;;;;;;;8.13;7.43;;;20.40;21.20;;;;;;5052007;28;20063;-86
2022/08/27 04:09:06;;;;;;;7.97;6.72;;;20.40;19.00;;;;;;5051636;28;20486;-86
2022/08/27 04:11:35;;;;;;;7.57;6.95;;;20.30;22.20;;;;;;5051907;28;20132;-86
2022/08/27 04:14:04;;;;;;;8.15;6.70;;;20.50;20.00;;;;;;5049912;28;20017;-86
2022/08/27 04:16:30;;;;;;;9.05;6.85;;;20.30;24.10;;;;;;5051816;28;20025;-85
2022/08/27 04:18:56;;;;;;;9.43;8.52;;;20.30;25.00;;;;;;5051947;28;20025;-86
2022/08/27 04:21:22;;;;;;;7.72;7.13;;;20.20;18.90;;;;;;5053198;28;20075;-87
2022/08/27 04:23:48;;;;;;;8.93;8.13;;;20.10;19.10;;;;;;5055200;28;20083;-87
2022/08/27 04:26:14;;;;;;;9.48;8.60;;;20.10;20.10;;;;;;5055440;28;20021;-86
2022/08/27 04:28:40;;;;;;;9.00;8.13;;;20.10;22.00;;;;;;5055142;28;20451;-87
2022/08/27 04:31:06;;;;;;;9.85;7.97;;;20.10;22.60;;;;;;5055377;28;20092;-86
2022/08/27 04:33:32;;;;;;;8.25;7.13;;;20.20;26.90;;;;;;5055376;28;20032;-86
2022/08/27 04:36:06;;;;;;;8.88;8.07;;;20.20;25.50;;;;;;5055206;28;20102;-86
2022/08/27 04:38:32;;;;;;;8.02;7.38;;;20.20;26.40;;;;;;5054809;28;20029;-87
2022/08/27 04:41:20;;;;;;;9.70;8.75;;;20.00;25.50;;;;;;5055160;28;20032;-86
2022/08/27 04:43:55;;;;;;;10.10;9.18;;;20.00;26.60;;;;;;5055136;28;20029;-86
2022/08/27 04:46:27;;;;;;;9.50;8.70;;;20.10;25.50;;;;;;5055050;28;20028;-86
2022/08/27 04:48:55;;;;;;;9.20;8.40;;;20.20;38.50;;;;;;5055128;28;20490;-86
2022/08/27 04:51:20;;;;;;;9.35;8.55;;;20.30;25.70;;;;;;5054949;28;20139;-86
2022/08/27 04:53:47;;;;;;;9.95;9.15;;;20.30;23.00;;;;;;5054630;28;20063;-86
2022/08/27 04:56:15;;;;;;;10.02;9.10;;;20.20;23.00;;;;;;5054799;28;20064;-86
2022/08/27 04:58:41;;;;;;;10.48;9.55;;;20.20;25.40;;;;;;5054945;28;20058;-87
2022/08/27 05:01:06;;;;;;;10.75;9.75;;;20.30;26.60;;;;;;5054818;28;20095;-86
2022/08/27 05:03:32;;;;;;;11.40;10.20;;;20.30;21.80;;;;;;5054652;28;20053;-87
2022/08/27 05:06:01;;;;;;;12.93;10.43;;;20.30;21.90;;;;;;5054741;28;20048;-87
2022/08/27 05:08:28;;;;;;;11.05;9.98;;;20.30;27.30;;;;;;5054315;28;20055;-87
2022/08/27 05:10:53;;;;;;;10.52;9.52;;;20.30;28.40;;;;;;5054608;28;20111;-86
2022/08/27 05:13:23;;;;;;;11.15;10.13;;;20.30;25.70;;;;;;5054247;28;20130;-86
2022/08/27 05:15:49;;;;;;;11.15;10.05;;;20.30;25.00;;;;;;5053259;28;20087;-86
2022/08/27 05:18:15;;;;;;;11.13;9.88;;;20.30;27.20;;;;;;5054486;28;20021;-86
2022/08/27 05:20:48;;;;;;;11.20;10.10;;;20.20;20.90;;;;;;5054117;28;20032;-86
2022/08/27 05:23:16;;;;;;;11.50;10.40;;;20.20;30.00;;;;;;5054476;28;20017;-86
2022/08/27 05:25:44;;;;;;;11.80;10.60;;;20.20;27.70;;;;;;5054257;28;20040;-86
2022/08/27 05:28:12;;;;;;;10.77;9.77;;;20.20;28.20;;;;;;5054015;28;20053;-87
2022/08/27 05:30:40;;;;;;;12.25;11.23;;;20.20;26.00;;;;;;5054325;28;20025;-86
2022/08/27 05:33:06;;;;;;;11.85;10.70;;;20.20;25.80;;;;;;5053126;28;20516;-86
2022/08/27 05:35:38;;;;;;;11.70;10.70;;;20.30;23.10;;;;;;5053624;28;20037;-86
2022/08/27 05:38:04;;;;;;;11.80;10.38;;;20.30;36.10;;;;;;5054223;28;20028;-86
2022/08/27 05:40:29;;;;;;;12.10;11.00;;;20.30;23.90;;;;;;5053979;28;20028;-86
2022/08/27 05:42:55;;;;;;;11.57;10.50;;;20.20;34.00;;;;;;5054026;28;20037;-86
2022/08/27 05:45:21;;;;;;;14.07;9.60;;;20.20;28.30;;;;;;5053972;28;20092;-86
2022/08/27 05:47:46;;;;;;;10.65;9.55;;;20.30;32.70;;;;;;5053936;28;20510;-86
2022/08/27 05:50:12;;;;;;;11.38;10.43;;;20.40;32.00;;;;;;5053597;28;20033;-86
2022/08/27 05:52:38;;;;;;;11.27;10.15;;;20.30;28.50;;;;;;5053525;28;20401;-86
2022/08/27 05:55:04;;;;;;;11.52;10.43;;;20.30;28.20;;;;;;5053808;28;20494;-86
2022/08/27 05:57:30;;;;;;;11.13;10.15;;;20.20;32.20;;;;;;5053645;28;20033;-87
2022/08/27 06:02:39;;;;;;;11.00;9.95;;;20.50;30.00;;;;;;5053653;28;20024;-86
2022/08/27 06:05:05;;;;;;;11.85;10.75;;;20.50;28.00;;;;;;5053198;28;20029;-86
2022/08/27 06:07:33;;;;;;;11.43;10.43;;;20.50;27.50;;;;;;5053517;28;20025;-86
2022/08/27 06:09:59;;;;;;;11.10;9.98;;;20.40;28.00;;;;;;5053550;28;20036;-86
2022/08/27 06:12:25;;;;;;;14.45;11.15;;;20.50;25.50;;;;;;5053354;28;20028;-86
2022/08/27 06:14:50;;;;;;;11.68;10.48;;;20.50;32.50;;;;;;5051272;28;20037;-87
2022/08/27 06:17:16;;;;;;;12.00;11.00;;;20.20;30.80;;;;;;5053279;28;20028;-86
2022/08/27 06:19:44;;;;;;;12.00;10.82;;;20.30;26.20;;;;;;5053009;28;20047;-86
2022/08/27 06:22:10;;;;;;;11.98;10.88;;;20.40;29.60;;;;;;5053198;28;20052;-86
2022/08/27 06:24:40;;;;;;;11.90;10.80;;;20.60;28.70;;;;;;5053374;28;20394;-86
2022/08/27 06:27:13;;;;;;;12.38;10.88;;;20.60;36.70;;;;;;5052978;28;20082;-86
2022/08/27 06:29:39;;;;;;;11.30;10.35;;;20.60;34.90;;;;;;5052935;28;20108;-86
2022/08/27 06:32:05;;;;;;;11.25;10.27;;;20.60;42.40;;;;;;5035148;28;20497;-87
2022/08/27 06:34:31;;;;;;;11.73;10.52;;;20.60;29.20;;;;;;5052600;28;20037;-86
2022/08/27 06:36:57;;;;;;;11.25;10.15;;;20.50;31.60;;;;;;5053042;28;20021;-86
2022/08/27 06:39:23;;;;;;;12.75;11.43;;;20.40;27.30;;;;;;5035036;28;20029;-86
2022/08/27 06:41:51;;;;;;;13.27;12.00;;;20.50;27.30;;;;;;5035038;28;20047;-87
2022/08/27 06:44:17;;;;;;;13.05;11.77;;;20.50;31.20;;;;;;5052641;28;20037;-86
2022/08/27 06:46:43;;;;;;;17.52;12.32;;;20.40;26.20;;;;;;5052873;28;20509;-86
2022/08/27 06:49:09;;;;;;;13.80;12.50;;;20.30;34.10;;;;;;5052493;28;20432;-87
2022/08/27 06:51:37;;;;;;;12.82;11.55;;;20.40;34.50;;;;;;5052883;28;20021;-86
2022/08/27 06:54:06;;;;;;;13.32;11.98;;;20.40;38.50;;;;;;5052624;28;20033;-87
2022/08/27 06:56:31;;;;;;;13.02;11.80;;;20.40;33.40;;;;;;5052778;28;20029;-87
2022/08/27 06:59:00;;;;;;;15.13;11.18;;;20.60;33.20;;;;;;5052625;28;20430;-86
2022/08/27 07:01:29;;;;;;;13.48;12.07;;;20.60;34.80;;;;;;5052700;28;20070;-87
2022/08/27 07:03:57;;;;;;;13.75;12.45;;;20.60;35.70;;;;;;5052477;28;20104;-87
2022/08/27 07:06:24;;;;;;;15.55;12.77;;;20.40;34.20;;;;;;5034575;28;20528;-86
2022/08/27 07:08:49;;;;;;;13.88;12.60;;;20.50;33.40;;;;;;5052552;28;20033;-87
2022/08/27 07:11:16;;;;;;;14.02;12.55;;;20.50;30.00;;;;;;5052625;28;20033;-87
2022/08/27 07:13:42;;;;;;;13.68;12.10;;;20.60;34.70;;;;;;5050520;28;20030;-87
2022/08/27 07:16:10;;;;;;;15.18;12.95;;;20.80;39.10;;;;;;5052259;28;20500;-86
2022/08/27 07:18:37;;;;;;;13.13;11.77;;;20.80;37.60;;;;;;5052129;28;20021;-86
2022/08/27 07:21:04;;;;;;;12.60;11.50;;;20.80;28.60;;;;;;5052447;28;20029;-87
2022/08/27 07:23:31;;;;;;;12.25;11.02;;;20.80;33.60;;;;;;5052376;28;20048;-87
2022/08/27 07:25:57;;;;;;;14.23;12.73;;;20.80;35.70;;;;;;5052471;28;20021;-87
2022/08/27 07:28:24;;;;;;;12.90;11.60;;;20.80;34.30;;;;;;5052108;28;20498;-87
2022/08/27 07:30:50;;;;;;;13.50;11.95;;;20.70;34.90;;;;;;5052190;28;20119;-86
2022/08/27 07:33:16;;;;;;;15.18;13.75;;;20.80;39.60;;;;;;5052116;28;20110;-87
2022/08/27 07:35:43;;;;;;;13.25;11.88;;;21.00;33.40;;;;;;5052165;28;20063;-86
2022/08/27 07:38:10;;;;;;;12.68;11.50;;;21.10;38.40;;;;;;5052227;28;20021;-87
2022/08/27 07:40:36;;;;;;;12.95;11.65;;;21.20;46.20;;;;;;5052040;28;20127;-87
2022/08/27 07:45:54;;;;;;;16.67;12.30;;;20.90;49.90;;;;;;5051681;28;20039;-86
2022/08/27 07:48:22;;;;;;;12.02;10.90;;;20.90;40.20;;;;;;5052271;28;20040;-86
2022/08/27 07:50:48;;;;;;;11.65;10.55;;;21.20;37.30;;;;;;5052244;28;20043;-87
2022/08/27 07:53:14;;;;;;;12.50;11.02;;;21.10;34.50;;;;;;5052120;28;20028;-86
2022/08/27 07:55:40;;;;;;;13.60;12.30;;;21.30;32.80;;;;;;5051917;28;20484;-86
2022/08/27 07:58:06;;;;;;;13.63;10.73;;;21.10;28.20;;;;;;5056163;28;20043;-86
2022/08/27 08:00:32;;;;;;;13.18;11.88;;;21.10;28.10;;;;;;5055607;28;20029;-86
2022/08/27 08:02:59;;;;;;;13.85;12.50;;;20.90;37.30;;;;;;5038026;28;20051;-86
2022/08/27 08:05:25;;;;;;;11.32;10.32;;;20.90;36.10;;;;;;5037958;28;20021;-87
2022/08/27 08:07:50;;;;;;;12.55;11.45;;;20.90;40.30;;;;;;5055870;28;20029;-86
2022/08/27 08:10:19;;;;;;;14.13;12.75;;;21.10;29.70;;;;;;5055763;28;20536;-86
2022/08/27 08:12:45;;;;;;;12.75;11.52;;;21.30;30.70;;;;;;5055778;28;20036;-87
2022/08/27 08:15:11;;;;;;;13.75;11.85;;;21.50;33.60;;;;;;5053287;28;20037;-87
2022/08/27 08:17:37;;;;;;;12.23;11.02;;;21.80;29.70;;;;;;5055468;28;20017;-86
2022/08/27 08:20:05;;;;;;;13.05;11.70;;;21.90;32.60;;;;;;5055722;28;20030;-86
2022/08/27 08:22:31;;;;;;;13.27;12.10;;;21.90;35.80;;;;;;5055725;28;20017;-86
2022/08/27 08:24:56;;;;;;;14.07;12.77;;;21.70;28.90;;;;;;5055562;28;20030;-86
2022/08/27 08:27:22;;;;;;;15.25;13.65;;;21.50;36.00;;;;;;5055350;28;20032;-86
2022/08/27 08:29:48;;;;;;;13.05;11.60;;;21.50;36.50;;;;;;5055057;28;20025;-86
2022/08/27 08:32:14;;;;;;;13.30;11.93;;;21.60;31.40;;;;;;5055530;28;20032;-87
2022/08/27 08:34:40;;;;;;;14.15;12.77;;;21.50;35.90;;;;;;5055193;28;20033;-86
2022/08/27 08:37:06;;;;;;;14.60;13.07;;;21.70;40.80;;;;;;5055396;28;20029;-87
2022/08/27 08:39:33;;;;;;;15.35;13.60;;;21.70;32.20;;;;;;5055206;28;20025;-87
2022/08/27 08:42:01;;;;;;;13.05;11.80;;;21.90;35.40;;;;;;5055151;28;20107;-86
2022/08/27 08:44:34;;;;;;;12.82;11.52;;;22.10;42.30;;;;;;5054661;28;20433;-87
2022/08/27 08:47:14;;;;;;;12.13;10.95;;;22.10;32.20;;;;;;5037128;28;20029;-86
2022/08/27 08:49:55;;;;;;;12.75;11.55;;;22.00;33.00;;;;;;5055174;28;20064;-86
2022/08/27 08:52:50;;;;;;;12.55;10.80;;;21.80;36.70;;;;;;5054972;28;20024;-86
2022/08/27 08:55:33;;;;;;;12.60;11.27;;;22.10;30.50;;;;;;5054833;28;20060;-87
2022/08/27 08:58:14;;;;;;;13.23;11.93;;;22.50;30.00;;;;;;5054901;28;20021;-86
2022/08/27 09:00:42;;;;;;;12.93;11.68;;;22.70;33.90;;;;;;5054942;28;20029;-87
2022/08/27 09:03:11;;;;;;;11.88;10.80;;;22.80;33.40;;;;;;5054811;28;20025;-87
2022/08/27 09:05:42;;;;;;;12.15;10.73;;;23.10;32.70;;;;;;5054670;28;20033;-87
2022/08/27 09:08:20;;;;;;;12.25;11.05;;;24.00;29.30;;;;;;5054573;28;20025;-87
2022/08/27 09:11:02;;;;;;;11.25;10.10;;;24.20;32.80;;;;;;5054766;28;20504;-87
2022/08/27 09:13:36;;;;;;;12.23;10.93;;;24.00;30.00;;;;;;5052668;28;20049;-87
2022/08/27 09:16:03;;;;;;;11.52;10.40;;;23.80;31.30;;;;;;5047036;28;20044;-87
2022/08/27 09:18:30;;;;;;;12.13;10.93;;;23.60;34.00;;;;;;5054332;28;20037;-86
2022/08/27 09:21:09;;;;;;;11.77;10.52;;;23.70;29.90;;;;;;5054404;28;20402;-87
2022/08/27 09:24:06;;;;;;;10.70;9.80;;;23.70;41.50;;;;;;5054484;28;20496;-86
2022/08/27 09:26:35;;;;;;;11.00;9.90;;;24.10;31.90;;;;;;5054414;28;20028;-86
2022/08/27 09:29:15;;;;;;;10.18;9.30;;;24.40;29.80;;;;;;5053542;28;20041;-87
2022/08/27 09:32:00;;;;;;;11.70;10.60;;;24.40;34.70;;;;;;5054200;28;20373;-87
2022/08/27 09:34:36;;;;;;;11.15;9.82;;;25.20;35.20;;;;;;5054106;28;20036;-87
2022/08/27 09:37:11;;;;;;;10.90;9.88;;;25.10;33.20;;;;;;5054143;28;20036;-86
2022/08/27 09:39:47;;;;;;;9.82;8.93;;;24.70;26.80;;;;;;5054058;28;20419;-87
2022/08/27 09:42:37;;;;;;;10.25;9.25;;;25.30;35.40;;;;;;5053710;28;20025;-86
2022/08/27 09:45:18;;;;;;;10.48;9.57;;;26.20;25.70;;;;;;5054000;28;20036;-87
2022/08/27 09:47:48;;;;;;;9.45;8.55;;;26.30;26.30;;;;;;5053966;28;20032;-88
2022/08/27 09:50:18;;;;;;;9.73;8.70;;;26.70;26.20;;;;;;5053900;28;20021;-87
2022/08/27 09:52:53;;;;;;;8.40;7.68;;;27.60;38.50;;;;;;5053862;28;20390;-86
2022/08/27 09:55:52;;;;;;;9.05;8.20;;;27.90;33.20;;;;;;5053624;28;20424;-87
2022/08/27 09:58:28;;;;;;;8.85;7.95;;;27.40;35.20;;;;;;5053317;28;20562;-87
2022/08/27 10:01:03;;;;;;;8.75;7.95;;;28.10;31.10;;;;;;5053712;28;20071;-87
2022/08/27 10:03:29;;;;;;;8.95;8.15;;;29.20;29.10;;;;;;5053675;28;20025;-87
2022/08/27 10:05:55;;;;;;;8.25;7.07;;;28.80;31.70;;;;;;5053564;28;20028;-87
2022/08/27 10:08:42;;;;;;;8.57;7.78;;;29.20;39.20;;;;;;5053604;28;20028;-87
2022/08/27 10:11:22;;;;;;;7.47;6.78;;;28.50;28.20;;;;;;5053231;28;20078;-87
2022/08/27 10:14:02;;;;;;;8.25;6.53;;;31.30;41.10;;;;;;5051592;28;20055;-87
2022/08/27 10:16:36;;;;;;;14.63;13.13;;;34.70;42.30;;;;;;5053480;28;20037;-87
2022/08/27 10:19:10;;;;;;;6.72;6.03;;;32.10;36.40;;;;;;5045516;28;20029;-87
2022/08/27 10:21:48;;;;;;;6.28;5.72;;;32.00;27.60;;;;;;5053314;28;20478;-87
2022/08/27 10:24:32;;;;;;;6.85;6.30;;;32.80;27.80;;;;;;5053326;28;20028;-87
2022/08/27 10:27:21;;;;;;;6.85;6.20;;;34.10;33.60;;;;;;5052897;28;20394;-87
2022/08/27 10:30:01;;;;;;;7.03;6.28;;;34.60;29.40;;;;;;5053054;28;20033;-87
2022/08/27 10:32:51;;;;;;;7.47;6.30;;;36.80;29.70;;;;;;5053096;28;20574;-87
2022/08/27 10:35:34;;;;;;;5.82;5.32;;;39.00;28.20;;;;;;5052989;28;20064;-87
2022/08/27 10:38:29;;;;;;;8.38;5.07;;;40.80;37.60;;;;;;5053001;28;20021;-87
2022/08/27 10:41:05;;;;;;;7.07;5.40;;;42.70;41.90;;;;;;5052752;28;20068;-88
2022/08/27 10:43:49;;;;;;;6.43;4.90;;;42.60;43.80;;;;;;5052848;28;20390;-88
2022/08/27 10:47:02;;;;;;;5.35;4.85;;;39.90;32.90;;;;;;5052840;28;20414;-87
2022/08/27 10:49:38;;;;;;;5.82;5.10;;;37.50;30.70;;;;;;5045703;28;20048;-88
2022/08/27 10:52:07;;;;;;;5.55;5.07;;;40.00;42.90;;;;;;5052893;28;20353;-88
2022/08/27 10:54:55;;;;;;;6.13;4.85;;;35.60;26.20;;;;;;5052307;28;20025;-88
2022/08/27 10:57:29;;;;;;;8.93;5.88;;;35.40;26.60;;;;;;5052850;28;20021;-87
2022/08/27 11:00:06;;;;;;;8.80;5.55;;;31.90;29.10;;;;;;5052786;28;20017;-88
2022/08/27 11:02:43;;;;;;;6.65;6.05;;;30.20;29.40;;;;;;5052686;28;20086;-87
2022/08/27 11:05:17;;;;;;;6.70;6.00;;;29.00;26.70;;;;;;5052611;28;20017;-87
2022/08/27 11:07:51;;;;;;;6.57;5.97;;;28.20;22.10;;;;;;5052519;28;20040;-87
2022/08/27 11:10:27;;;;;;;7.43;5.50;;;28.10;25.00;;;;;;5052282;28;20509;-86
2022/08/27 11:12:57;;;;;;;6.82;5.97;;;28.20;23.60;;;;;;5052530;28;20099;-87
2022/08/27 11:15:30;;;;;;;6.15;5.60;;;28.20;25.30;;;;;;5052262;28;20065;-87
2022/08/27 11:18:21;;;;;;;7.07;6.00;;;28.90;26.80;;;;;;5044422;28;20492;-87
2022/08/27 11:20:58;;;;;;;5.53;5.03;;;29.50;27.00;;;;;;5052339;28;20056;-87
2022/08/27 11:23:32;;;;;;;9.50;6.88;;;33.00;25.90;;;;;;5051999;28;20108;-87
2022/08/27 11:26:04;;;;;;;6.95;6.22;;;36.30;31.50;;;;;;5044504;28;20032;-87
2022/08/27 11:28:50;;;;;;;5.93;5.18;;;36.70;27.30;;;;;;5052162;28;20041;-87
2022/08/27 11:31:28;;;;;;;5.72;4.60;;;40.50;31.60;;;;;;5033587;28;20415;-87
2022/08/27 11:33:54;;;;;;;6.00;4.30;;;42.90;36.40;;;;;;5036743;28;20022;-88
2022/08/27 11:36:52;;;;;;;4.50;4.10;;;44.40;33.90;;;;;;5036333;28;20091;-88
2022/08/27 11:39:20;;;;;;;7.95;7.25;;;41.10;24.90;;;;;;5036208;28;20052;-88
2022/08/27 11:42:09;;;;;;;6.70;5.78;;;40.50;23.30;;;;;;5036353;28;20537;-88
2022/08/27 11:44:42;;;;;;;6.03;5.28;;;37.70;22.80;;;;;;5036396;28;20026;-88
2022/08/27 11:47:12;;;;;;;5.93;4.68;;;36.60;17.40;;;;;;5036352;28;20056;-88
2022/08/27 11:49:51;;;;;;;5.55;5.07;;;35.70;18.80;;;;;;5036316;28;20537;-88
2022/08/27 11:52:39;;;;;;;7.22;5.43;;;40.00;23.00;;;;;;5035959;28;20029;-87
2022/08/27 11:55:18;;;;;;;6.15;5.55;;;39.00;24.90;;;;;;5035973;28;20152;-88
2022/08/27 11:57:44;;;;;;;5.38;4.60;;;36.40;18.90;;;;;;5018397;28;20409;-88
2022/08/27 12:00:18;;;;;;;5.20;4.60;;;37.70;21.10;;;;;;5036122;28;20379;-88
2022/08/27 12:03:10;;;;;;;6.13;5.40;;;40.50;24.00;;;;;;5036188;28;20487;-88
2022/08/27 12:05:43;;;;;;;5.65;5.15;;;39.30;23.70;;;;;;5036013;28;20053;-88
2022/08/27 12:08:20;;;;;;;5.35;4.65;;;36.70;17.80;;;;;;5035528;28;20441;-88
2022/08/27 12:11:03;;;;;;;5.63;5.10;;;38.60;25.30;;;;;;5035820;28;20113;-88
2022/08/27 12:13:36;;;;;;;5.28;4.78;;;37.30;20.60;;;;;;5037186;28;20064;-88
2022/08/27 12:16:22;;;;;;;5.40;4.90;;;36.20;21.80;;;;;;5055734;28;20048;-88
2022/08/27 12:19:18;;;;;;;5.95;5.05;;;33.80;20.60;;;;;;5055900;28;20498;-88
2022/08/27 12:23:38;;;;;;;5.88;4.97;;;33.70;20.40;;;;;;5055262;28;20036;-88
2022/08/27 12:25:21;;;;;;;6.03;5.50;;;33.20;18.90;;;;;;5050534;28;20021;-88
2022/08/27 12:28:01;;;;;;;7.55;4.97;;;32.90;27.50;;;;;;5055096;28;20049;-88
2022/08/27 12:30:48;;;;;;;6.45;5.57;;;33.00;20.90;;;;;;5055210;28;20036;-87
2022/08/27 12:33:38;;;;;;;6.03;5.28;;;32.50;18.90;;;;;;5055466;28;20517;-88
2022/08/27 12:36:19;;;;;;;4.97;4.57;;;32.60;19.60;;;;;;5054966;28;20553;-88
2022/08/27 12:38:49;;;;;;;6.75;5.15;;;32.60;21.90;;;;;;5055284;28;20025;-87
2022/08/27 12:41:37;;;;;;;6.70;5.45;;;33.00;17.60;;;;;;5055209;28;20032;-87
2022/08/27 12:44:09;;;;;;;4.95;4.55;;;32.50;18.40;;;;;;5055150;28;20032;-88
2022/08/27 12:47:10;;;;;;;6.80;5.13;;;31.90;17.70;;;;;;5055172;28;20052;-88
2022/08/27 12:49:50;;;;;;;6.38;5.45;;;32.00;20.10;;;;;;5051407;28;20075;-87
2022/08/27 12:52:48;;;;;;;5.47;5.07;;;32.10;18.50;;;;;;5054724;28;20035;-88
2022/08/27 12:55:43;;;;;;;6.93;5.22;;;33.00;21.00;;;;;;4973928;28;20543;-87
2022/08/27 12:58:36;;;;;;;6.88;5.53;;;33.00;22.40;;;;;;4974001;28;20026;-88
2022/08/27 13:01:27;;;;;;;5.25;4.20;;;36.00;25.20;;;;;;4974008;28;20023;-88
2022/08/27 13:03:54;;;;;;;6.15;4.95;;;39.50;31.60;;;;;;4974027;28;20122;-88
2022/08/27 13:06:27;;;;;;;5.45;4.95;;;38.10;25.20;;;;;;4973416;28;20407;-87
2022/08/27 13:08:55;;;;;;;5.13;4.72;;;35.10;21.70;;;;;;4973982;28;20155;-88
2022/08/27 13:11:27;;;;;;;5.00;4.50;;;33.40;21.20;;;;;;4973932;28;20022;-88